createdAt,value
2018-07-30T00:02:23.348Z,84.70
2018-07-30T00:04:52.356Z,84.80
2018-07-30T00:07:21.327Z,85.10
2018-07-30T00:12:18.976Z,85.30
2018-07-30T00:14:47.975Z,85.80
2018-07-30T00:17:16.940Z,85.70
2018-07-30T00:19:45.887Z,85.90
2018-07-30T00:22:14.796Z,86.10
2018-07-30T00:24:43.877Z,86.20
2018-07-30T00:27:12.897Z,86.10
2018-07-30T00:29:41.846Z,86.20
2018-07-30T00:32:10.811Z,86.40
2018-07-30T00:34:39.758Z,86.50
2018-07-30T00:37:08.842Z,86.50
2018-07-30T00:42:06.300Z,86.40
2018-07-30T00:44:35.258Z,86.50
2018-07-30T00:47:04.167Z,86.40
2018-07-30T00:49:33.057Z,86.60
2018-07-30T00:52:01.985Z,86.80
2018-07-30T00:56:59.542Z,87.10
2018-07-30T00:59:28.490Z,86.90
2018-07-30T01:01:57.556Z,86.90
2018-07-30T01:06:54.992Z,87.30
2018-07-30T01:09:23.958Z,87.20
2018-07-30T01:11:54.718Z,87.30
2018-07-30T01:14:23.662Z,87.50
2018-07-30T01:16:52.645Z,87.90
2018-07-30T01:19:21.589Z,87.90
2018-07-30T01:21:50.570Z,87.70
2018-07-30T01:24:19.521Z,88.00
2018-07-30T01:26:48.448Z,87.90
2018-07-30T01:29:17.360Z,88.10
2018-07-30T01:31:46.358Z,88.20
2018-07-30T01:34:15.336Z,88.30
2018-07-30T01:36:44.230Z,88.50
2018-07-30T01:39:13.197Z,88.50
2018-07-30T01:41:42.132Z,88.40
2018-07-30T01:44:11.194Z,88.50
2018-07-30T01:46:40.169Z,88.50
2018-07-30T01:49:09.342Z,88.50
2018-07-30T01:54:06.838Z,88.70
2018-07-30T01:56:35.804Z,88.70
2018-07-30T01:59:04.762Z,89.00
2018-07-30T02:01:33.723Z,89.00
2018-07-30T02:04:02.674Z,89.20
2018-07-30T02:06:31.703Z,89.10
2018-07-30T02:09:00.677Z,89.20
2018-07-30T02:11:29.642Z,89.20
2018-07-30T02:13:58.733Z,89.10
2018-07-30T02:16:27.881Z,89.30
2018-07-30T02:18:56.921Z,89.40
2018-07-30T02:21:26.036Z,89.20
2018-07-30T02:23:55.022Z,89.10
2018-07-30T02:26:23.994Z,88.80
2018-07-30T02:28:53.064Z,88.80
2018-07-30T02:31:22.173Z,88.90
2018-07-30T02:33:51.122Z,89.20
2018-07-30T02:36:20.054Z,89.60
2018-07-30T02:38:49.001Z,89.70
2018-07-30T02:41:17.984Z,89.90
2018-07-30T02:43:47.020Z,89.90
2018-07-30T02:46:16.165Z,90.10
2018-07-30T02:48:45.166Z,90.20
2018-07-30T02:51:14.143Z,90.30
2018-07-30T02:53:43.163Z,90.40
2018-07-30T02:58:40.768Z,90.80
2018-07-30T03:01:09.864Z,90.50
2018-07-30T03:03:38.985Z,90.40
2018-07-30T03:06:07.617Z,90.40
2018-07-30T03:08:36.604Z,90.30
2018-07-30T03:11:05.602Z,90.30
2018-07-30T03:13:34.642Z,90.20
2018-07-30T03:16:03.702Z,90.10
2018-07-30T03:18:32.745Z,90.00
2018-07-30T03:21:01.695Z,90.10
2018-07-30T03:23:30.734Z,90.10
2018-07-30T03:25:59.758Z,90.10
2018-07-30T03:28:28.820Z,90.10
2018-07-30T03:30:57.915Z,90.10
2018-07-30T03:33:27.138Z,90.10
2018-07-30T03:35:56.175Z,90.10
2018-07-30T03:38:25.260Z,90.00
2018-07-30T03:40:54.284Z,89.90
2018-07-30T03:43:23.374Z,89.80
2018-07-30T03:45:52.375Z,90.20
2018-07-30T03:48:21.514Z,90.00
2018-07-30T03:50:50.592Z,90.00
2018-07-30T03:53:19.642Z,90.10
2018-07-30T03:58:17.305Z,90.40
2018-07-30T04:03:14.913Z,90.00
2018-07-30T04:05:44.031Z,90.00
2018-07-30T04:08:13.046Z,90.00
2018-07-30T04:10:42.024Z,89.90
2018-07-30T04:13:11.102Z,89.90
2018-07-30T04:15:40.241Z,90.00
2018-07-30T04:18:09.230Z,89.90
2018-07-30T04:20:38.263Z,90.00
2018-07-30T04:23:07.364Z,90.00
2018-07-30T04:25:36.335Z,89.80
2018-07-30T04:30:33.879Z,89.80
2018-07-30T04:33:03.058Z,90.00
2018-07-30T04:35:32.102Z,89.90
2018-07-30T04:40:29.708Z,89.80
2018-07-30T04:42:58.688Z,89.90
2018-07-30T04:45:27.762Z,90.00
2018-07-30T04:47:56.799Z,90.10
2018-07-30T04:50:25.888Z,90.30
2018-07-30T04:52:54.874Z,90.40
2018-07-30T04:55:23.875Z,90.60
2018-07-30T04:57:52.862Z,90.70
2018-07-30T05:00:21.845Z,90.70
2018-07-30T05:02:50.842Z,90.90
2018-07-30T05:07:48.799Z,91.00
2018-07-30T05:10:17.898Z,91.20
2018-07-30T05:12:46.891Z,91.20
2018-07-30T05:15:15.915Z,91.20
2018-07-30T05:17:45.016Z,91.40
2018-07-30T05:20:14.082Z,91.30
2018-07-30T05:22:43.178Z,91.40
2018-07-30T05:25:12.251Z,91.50
2018-07-30T05:27:41.318Z,91.50
2018-07-30T05:30:10.286Z,91.60
2018-07-30T05:32:39.363Z,91.70
2018-07-30T05:35:08.355Z,91.80
2018-07-30T05:37:37.481Z,91.80
2018-07-30T05:40:06.601Z,91.90
2018-07-30T05:42:35.735Z,92.00
2018-07-30T05:45:05.182Z,91.90
2018-07-30T05:47:34.185Z,92.30
2018-07-30T05:50:03.308Z,91.80
2018-07-30T05:52:32.329Z,91.70
2018-07-30T05:55:01.381Z,91.90
2018-07-30T05:57:30.360Z,92.00
2018-07-30T05:59:59.405Z,91.50
2018-07-30T06:02:28.530Z,91.40
2018-07-30T06:04:57.541Z,91.30
2018-07-30T06:07:26.629Z,91.20
2018-07-30T06:09:55.586Z,91.10
2018-07-30T06:12:25.014Z,91.00
2018-07-30T06:14:54.120Z,90.90
2018-07-30T06:17:23.139Z,90.90
2018-07-30T06:19:52.159Z,90.80
2018-07-30T06:22:21.139Z,90.80
2018-07-30T06:24:50.246Z,90.70
2018-07-30T06:27:19.435Z,90.60
2018-07-30T06:29:48.542Z,90.50
2018-07-30T06:32:17.571Z,90.40
2018-07-30T06:34:46.615Z,90.30
2018-07-30T06:37:16.463Z,90.20
2018-07-30T06:39:45.603Z,90.00
2018-07-30T06:42:14.763Z,89.50
2018-07-30T06:44:43.812Z,89.10
2018-07-30T06:47:14.376Z,88.60
2018-07-30T06:49:43.636Z,88.10
2018-07-30T06:52:12.712Z,86.90
2018-07-30T06:54:41.835Z,86.60
2018-07-30T06:57:10.991Z,85.70
2018-07-30T06:59:40.132Z,84.80
2018-07-30T07:02:09.253Z,83.00
2018-07-30T07:04:38.377Z,81.00
2018-07-30T07:07:07.541Z,79.50
2018-07-30T07:09:36.495Z,77.80
2018-07-30T07:12:05.648Z,77.40
2018-07-30T07:14:34.660Z,75.40
2018-07-30T07:17:03.622Z,74.60
2018-07-30T07:22:01.295Z,68.50
2018-07-30T07:24:30.196Z,66.30
2018-07-30T07:26:59.229Z,65.40
2018-07-30T07:29:28.240Z,62.30
2018-07-30T07:31:57.255Z,61.50
2018-07-30T07:34:26.221Z,61.20
2018-07-30T07:36:55.252Z,59.60
2018-07-30T07:39:24.215Z,59.30
2018-07-30T07:41:53.274Z,59.00
2018-07-30T07:44:22.239Z,58.10
2018-07-30T07:46:51.164Z,57.70
2018-07-30T07:49:20.152Z,58.30
2018-07-30T07:51:49.225Z,57.00
2018-07-30T07:54:18.182Z,58.20
2018-07-30T07:56:47.185Z,58.00
2018-07-30T07:59:16.223Z,57.00
2018-07-30T08:01:45.252Z,56.90
2018-07-30T08:04:14.158Z,56.50
2018-07-30T08:06:43.145Z,55.80
2018-07-30T08:09:12.665Z,55.50
2018-07-30T08:11:41.597Z,55.30
2018-07-30T08:14:10.679Z,55.30
2018-07-30T08:16:39.748Z,54.60
2018-07-30T08:19:08.806Z,53.20
2018-07-30T08:21:37.894Z,53.10
2018-07-30T08:24:07.172Z,52.00
2018-07-30T08:26:36.224Z,53.40
2018-07-30T08:29:05.194Z,53.00
2018-07-30T08:31:34.234Z,53.40
2018-07-30T08:34:03.267Z,53.20
2018-07-30T08:36:32.322Z,52.30
2018-07-30T08:39:01.249Z,53.10
2018-07-30T08:41:30.325Z,53.60
2018-07-30T08:43:59.325Z,51.60
2018-07-30T08:46:28.334Z,51.80
2018-07-30T08:48:57.398Z,50.30
2018-07-30T08:51:26.363Z,49.60
2018-07-30T08:53:55.315Z,48.80
2018-07-30T08:56:24.409Z,48.20
2018-07-30T08:58:55.289Z,49.00
2018-07-30T09:01:24.308Z,50.40
2018-07-30T09:03:53.345Z,49.90
2018-07-30T09:06:22.357Z,47.00
2018-07-30T09:08:51.388Z,48.60
2018-07-30T09:11:20.465Z,45.30
2018-07-30T09:13:49.426Z,48.80
2018-07-30T09:16:18.541Z,48.00
2018-07-30T09:18:47.537Z,45.90
2018-07-30T09:21:16.545Z,47.20
2018-07-30T09:23:45.542Z,45.80
2018-07-30T09:26:14.471Z,47.00
2018-07-30T09:28:43.471Z,43.10
2018-07-30T09:31:12.590Z,45.00
2018-07-30T09:33:41.574Z,43.30
2018-07-30T09:36:10.715Z,45.30
2018-07-30T09:38:39.848Z,43.10
2018-07-30T09:41:08.954Z,43.70
2018-07-30T09:43:37.920Z,45.40
2018-07-30T09:46:06.953Z,46.60
2018-07-30T09:48:35.944Z,47.10
2018-07-30T09:51:04.922Z,45.10
2018-07-30T09:53:33.912Z,43.50
2018-07-30T09:56:02.948Z,42.60
2018-07-30T09:58:31.945Z,43.10
2018-07-30T10:01:10.126Z,44.20
2018-07-30T10:03:39.297Z,43.50
2018-07-30T10:06:08.271Z,43.90
2018-07-30T10:08:37.256Z,42.40
2018-07-30T10:11:06.239Z,42.20
2018-07-30T10:13:35.194Z,40.80
2018-07-30T10:16:04.210Z,40.20
2018-07-30T10:18:33.173Z,38.40
2018-07-30T10:21:02.193Z,39.10
2018-07-30T10:23:31.163Z,39.50
2018-07-30T10:26:00.214Z,40.10
2018-07-30T10:28:29.261Z,40.40
2018-07-30T10:30:58.250Z,37.50
2018-07-30T10:33:27.293Z,37.80
2018-07-30T10:35:56.365Z,36.40
2018-07-30T10:38:25.380Z,37.60
2018-07-30T10:40:54.534Z,36.30
2018-07-30T10:43:23.618Z,38.00
2018-07-30T10:45:52.701Z,38.30
2018-07-30T10:48:21.815Z,39.70
2018-07-30T10:50:50.900Z,39.00
2018-07-30T10:53:19.936Z,38.20
2018-07-30T10:55:49.076Z,39.00
2018-07-30T10:58:18.084Z,36.20
2018-07-30T11:00:47.130Z,37.50
2018-07-30T11:03:16.113Z,36.20
2018-07-30T11:05:45.191Z,35.70
2018-07-30T11:08:14.190Z,35.70
2018-07-30T11:10:43.273Z,35.10
2018-07-30T11:13:12.419Z,36.30
2018-07-30T11:15:41.338Z,36.30
2018-07-30T11:18:10.408Z,36.30
2018-07-30T11:20:39.423Z,35.40
2018-07-30T11:23:08.562Z,36.60
2018-07-30T11:25:37.596Z,35.40
2018-07-30T11:28:06.649Z,35.40
2018-07-30T11:30:35.691Z,34.00
2018-07-30T11:33:04.753Z,32.60
2018-07-30T11:35:33.839Z,32.50
2018-07-30T11:38:02.900Z,31.90
2018-07-30T11:40:32.109Z,32.20
2018-07-30T11:43:01.509Z,31.90
2018-07-30T11:45:30.525Z,32.90
2018-07-30T11:47:59.620Z,32.60
2018-07-30T11:50:28.688Z,32.70
2018-07-30T11:52:57.797Z,33.20
2018-07-30T11:55:27.607Z,33.10
2018-07-30T11:57:56.729Z,34.70
2018-07-30T12:00:25.832Z,33.90
2018-07-30T12:02:55.284Z,33.80
2018-07-30T12:05:24.325Z,33.20
2018-07-30T12:07:53.404Z,34.30
2018-07-30T12:10:22.500Z,35.00
2018-07-30T12:12:51.564Z,34.80
2018-07-30T12:15:20.613Z,32.10
2018-07-30T12:17:49.619Z,32.40
2018-07-30T12:20:18.712Z,34.40
2018-07-30T12:22:47.814Z,32.50
2018-07-30T12:25:17.008Z,32.50
2018-07-30T12:27:46.117Z,30.70
2018-07-30T12:30:15.356Z,30.50
2018-07-30T12:32:44.495Z,31.40
2018-07-30T12:35:13.625Z,30.40
2018-07-30T12:37:42.761Z,30.00
2018-07-30T12:40:11.918Z,30.00
2018-07-30T12:42:40.902Z,30.20
2018-07-30T12:45:09.984Z,30.70
2018-07-30T12:47:39.045Z,33.30
2018-07-30T12:50:07.985Z,31.40
2018-07-30T12:52:36.992Z,31.60
2018-07-30T12:55:06.026Z,31.00
2018-07-30T12:57:35.074Z,31.40
2018-07-30T13:00:04.258Z,33.40
2018-07-30T13:02:33.353Z,30.80
2018-07-30T13:05:02.497Z,30.00
2018-07-30T13:07:31.665Z,29.90
2018-07-30T13:10:00.848Z,29.40
2018-07-30T13:12:29.891Z,29.00
2018-07-30T13:14:58.929Z,29.30
2018-07-30T13:17:27.895Z,30.40
2018-07-30T13:19:56.948Z,29.80
2018-07-30T13:22:25.953Z,30.00
2018-07-30T13:24:55.037Z,27.60
2018-07-30T13:27:24.084Z,28.60
2018-07-30T13:29:53.101Z,28.60
2018-07-30T13:32:22.120Z,29.30
2018-07-30T13:34:51.239Z,29.00
2018-07-30T13:37:20.376Z,26.50
2018-07-30T13:39:49.422Z,27.10
2018-07-30T13:42:18.650Z,25.20
2018-07-30T13:44:47.609Z,25.30
2018-07-30T13:47:16.714Z,26.80
2018-07-30T13:49:45.714Z,26.10
2018-07-30T13:52:14.823Z,25.30
2018-07-30T13:54:43.879Z,24.60
2018-07-30T13:57:13.085Z,23.30
2018-07-30T13:59:42.163Z,22.40
2018-07-30T14:02:11.175Z,23.70
2018-07-30T14:04:43.845Z,23.10
2018-07-30T14:07:14.709Z,23.50
2018-07-30T14:09:43.722Z,23.50
2018-07-30T14:12:12.874Z,24.20
2018-07-30T14:14:41.926Z,24.60
2018-07-30T14:17:11.104Z,23.00
2018-07-30T14:19:40.186Z,22.40
2018-07-30T14:22:09.346Z,23.70
2018-07-30T14:24:38.459Z,24.20
2018-07-30T14:27:07.636Z,23.60
2018-07-30T14:29:36.723Z,22.60
2018-07-30T14:32:05.856Z,23.00
2018-07-30T14:34:35.151Z,24.40
2018-07-30T14:37:04.481Z,25.20
2018-07-30T14:39:33.609Z,25.90
2018-07-30T14:42:02.670Z,26.20
2018-07-30T14:44:31.698Z,26.70
2018-07-30T14:47:00.826Z,26.20
2018-07-30T14:49:30.073Z,25.10
2018-07-30T14:51:59.130Z,24.10
2018-07-30T14:54:28.272Z,24.90
2018-07-30T14:56:57.308Z,26.00
2018-07-30T14:59:26.520Z,27.70
2018-07-30T15:01:55.677Z,28.40
2018-07-30T15:04:24.902Z,29.90
2018-07-30T15:06:53.966Z,28.40
2018-07-30T15:09:23.125Z,27.70
2018-07-30T15:11:52.202Z,28.80
2018-07-30T15:14:21.282Z,30.10
2018-07-30T15:16:50.401Z,32.50
2018-07-30T15:19:19.632Z,34.20
2018-07-30T15:21:48.589Z,36.50
2018-07-30T15:24:17.933Z,37.90
2018-07-30T15:26:47.084Z,38.90
2018-07-30T15:29:16.307Z,39.50
2018-07-30T15:31:45.362Z,40.70
2018-07-30T15:34:14.790Z,39.20
2018-07-30T15:36:44.019Z,37.30
2018-07-30T15:39:13.235Z,37.00
2018-07-30T15:41:42.316Z,35.80
2018-07-30T15:44:11.441Z,32.80
2018-07-30T15:46:40.573Z,31.20
2018-07-30T15:49:09.648Z,31.00
2018-07-30T15:51:38.608Z,32.40
2018-07-30T15:54:07.841Z,33.20
2018-07-30T15:56:36.955Z,35.30
2018-07-30T15:59:06.073Z,36.30
2018-07-30T16:01:35.225Z,35.90
2018-07-30T16:04:04.413Z,36.40
2018-07-30T16:06:33.499Z,38.20
2018-07-30T16:09:02.590Z,39.40
2018-07-30T16:11:31.726Z,41.00
2018-07-30T16:14:00.925Z,42.20
2018-07-30T16:16:30.011Z,42.20
2018-07-30T16:18:59.096Z,41.60
2018-07-30T16:21:28.277Z,41.00
2018-07-30T16:23:57.396Z,40.90
2018-07-30T16:26:26.443Z,41.50
2018-07-30T16:28:55.877Z,41.80
2018-07-30T16:31:24.961Z,43.60
2018-07-30T17:46:52.227Z,59.60
2018-07-30T17:49:21.425Z,60.80
2018-07-30T17:51:50.525Z,61.80
2018-07-30T17:54:19.626Z,62.00
2018-07-30T17:56:48.666Z,62.50
2018-07-30T17:59:17.630Z,62.80
2018-07-30T18:01:46.780Z,63.10
2018-07-30T18:04:15.865Z,62.80
2018-07-30T18:06:45.056Z,63.00
2018-07-30T18:09:14.142Z,63.20
2018-07-30T18:11:43.245Z,63.10
2018-07-30T18:16:41.078Z,63.50
2018-07-30T18:19:10.104Z,64.10
2018-07-30T18:21:39.242Z,64.70
2018-07-30T18:24:08.411Z,64.70
2018-07-30T18:26:37.600Z,64.80
2018-07-30T18:31:35.447Z,65.10
2018-07-30T18:34:10.985Z,64.60
2018-07-30T18:36:40.026Z,64.50
2018-07-30T18:39:09.115Z,64.50
2018-07-30T18:41:38.228Z,64.50
2018-07-30T18:44:07.365Z,65.40
2018-07-30T18:46:36.403Z,65.00
2018-07-30T18:49:05.554Z,65.20
2018-07-30T18:51:34.601Z,65.00
2018-07-30T18:54:03.747Z,65.40
2018-07-30T18:56:32.863Z,65.50
2018-07-30T18:59:02.001Z,66.20
2018-07-30T19:01:31.234Z,66.50
2018-07-30T19:04:00.418Z,66.60
2018-07-30T19:06:29.472Z,67.00
2018-07-30T19:08:58.623Z,67.60
2018-07-30T19:11:27.755Z,67.60
2018-07-30T19:13:56.892Z,67.60
2018-07-30T19:16:25.935Z,67.70
2018-07-30T19:18:54.957Z,68.40
2018-07-30T19:21:24.191Z,67.50
2018-07-30T19:23:53.379Z,67.70
2018-07-30T19:26:22.367Z,67.50
2018-07-30T19:28:51.679Z,67.00
2018-07-30T19:31:21.020Z,66.90
2018-07-30T19:33:50.221Z,67.20
2018-07-30T19:36:19.606Z,67.70
2018-07-30T19:38:48.767Z,67.90
2018-07-30T19:41:17.931Z,68.30
2018-07-30T19:43:46.891Z,68.60
2018-07-30T19:46:15.877Z,68.90
2018-07-30T19:48:44.960Z,69.40
2018-07-30T19:51:13.997Z,69.60
2018-07-30T19:53:43.223Z,69.70
2018-07-30T19:56:12.264Z,69.40
2018-07-30T19:58:41.586Z,69.60
2018-07-30T20:01:10.474Z,69.70
2018-07-30T20:03:39.553Z,70.00
2018-07-30T20:06:08.456Z,70.60
2018-07-30T20:08:37.431Z,70.60
2018-07-30T20:11:07.304Z,71.10
2018-07-30T20:13:36.329Z,71.70
2018-07-30T20:16:05.479Z,71.80
2018-07-30T20:18:34.704Z,73.00
2018-07-30T20:21:03.902Z,72.90
2018-07-30T20:23:33.005Z,73.10
2018-07-30T20:26:02.034Z,73.00
2018-07-30T20:28:31.115Z,73.20
2018-07-30T20:31:00.264Z,73.10
2018-07-30T20:33:29.310Z,72.90
2018-07-30T20:35:58.446Z,73.00
2018-07-30T20:38:27.489Z,74.30
2018-07-30T20:40:56.524Z,75.00
2018-07-30T20:43:25.597Z,75.60
2018-07-30T20:45:54.705Z,76.00
2018-07-30T20:48:23.799Z,76.00
2018-07-30T20:50:52.948Z,76.00
2018-07-30T20:53:22.209Z,76.50
2018-07-30T20:55:51.356Z,76.90
2018-07-30T21:01:15.487Z,76.70
2018-07-30T21:03:44.243Z,76.70
2018-07-30T21:06:12.946Z,75.90
2018-07-30T21:08:41.674Z,75.10
2018-07-30T21:11:10.961Z,75.30
2018-07-30T21:13:40.254Z,75.90
2018-07-30T21:16:09.524Z,75.70
2018-07-30T21:18:38.848Z,76.30
2018-07-30T21:21:08.205Z,76.10
2018-07-30T21:23:37.486Z,76.00
2018-07-30T21:26:06.725Z,76.10
2018-07-30T21:28:35.990Z,76.50
2018-07-30T21:31:05.287Z,76.50
2018-07-30T21:33:34.499Z,76.70
2018-07-30T21:36:03.692Z,76.70
2018-07-30T21:38:33.008Z,77.10
2018-07-30T21:41:02.281Z,77.30
2018-07-30T21:43:31.505Z,77.50
2018-07-30T21:46:00.681Z,77.10
2018-07-30T21:48:30.241Z,77.30
2018-07-30T21:50:59.392Z,77.70
2018-07-30T21:53:29.558Z,78.20
2018-07-30T21:55:58.861Z,78.30
2018-07-30T21:58:28.104Z,78.40
2018-07-30T22:00:58.402Z,78.90
2018-07-30T22:03:27.903Z,79.00
2018-07-30T22:06:03.932Z,79.10
2018-07-30T22:08:33.036Z,79.10
2018-07-30T22:11:02.285Z,78.70
2018-07-30T22:13:31.601Z,79.40
2018-07-30T22:16:00.664Z,79.50
2018-07-30T22:18:29.881Z,79.20
2018-07-30T22:20:59.080Z,79.20
2018-07-30T22:23:28.359Z,79.40
2018-07-30T22:25:57.656Z,80.10
2018-07-30T22:28:26.940Z,80.40
2018-07-30T22:30:56.139Z,80.50
2018-07-30T22:35:54.203Z,79.80
2018-07-30T22:38:23.520Z,80.30
2018-07-30T22:40:52.755Z,80.30
2018-07-30T22:43:22.073Z,80.50
2018-07-30T22:45:51.359Z,80.90
2018-07-30T22:48:20.578Z,81.10
2018-07-30T22:50:51.207Z,81.00
2018-07-30T22:53:20.331Z,81.40
2018-07-30T22:55:49.605Z,81.60
2018-07-30T22:58:18.889Z,81.90
2018-07-30T23:00:48.111Z,81.90
2018-07-30T23:03:20.453Z,81.70
2018-07-30T23:05:49.772Z,81.80
2018-07-30T23:08:19.011Z,81.90
2018-07-30T23:10:48.316Z,82.90
2018-07-30T23:13:17.577Z,82.20
2018-07-30T23:15:46.806Z,82.50
2018-07-30T23:18:16.007Z,82.10
2018-07-30T23:20:45.170Z,82.40
2018-07-30T23:23:14.453Z,82.10
2018-07-30T23:25:43.635Z,82.40
2018-07-30T23:28:12.774Z,82.10
2018-07-30T23:30:41.913Z,82.00
2018-07-30T23:33:11.079Z,81.90
2018-07-30T23:35:40.216Z,81.60
2018-07-30T23:38:09.479Z,81.90
2018-07-30T23:40:38.643Z,82.50
2018-07-30T23:43:07.906Z,82.70
2018-07-30T23:45:37.085Z,82.90
2018-07-30T23:50:35.040Z,82.80
2018-07-30T23:53:04.322Z,82.80
2018-07-30T23:55:33.545Z,83.20
2018-07-30T23:58:02.884Z,83.40
